createdAt,value
2019-04-28T00:02:27.865Z,35.44
2019-04-28T00:04:59.179Z,35.74
2019-04-28T00:07:32.223Z,35.44
2019-04-28T00:10:05.275Z,35.43
2019-04-28T00:12:38.488Z,36.08
2019-04-28T00:15:10.896Z,36.20
2019-04-28T00:17:42.736Z,36.02
2019-04-28T00:20:32.356Z,36.18
2019-04-28T00:23:08.296Z,35.62
2019-04-28T00:25:43.556Z,36.32
2019-04-28T00:28:14.887Z,35.96
2019-04-28T00:30:46.621Z,35.11
2019-04-28T00:33:18.342Z,34.64
2019-04-28T00:35:51.517Z,34.37
2019-04-28T00:38:24.178Z,34.49
2019-04-28T00:40:55.772Z,32.63
2019-04-28T00:43:27.804Z,32.53
2019-04-28T00:46:00.966Z,32.91
2019-04-28T00:48:33.660Z,32.06
2019-04-28T00:51:05.288Z,32.56
2019-04-28T00:53:36.946Z,32.85
2019-04-28T00:56:08.618Z,34.22
2019-04-28T00:58:41.775Z,33.84
2019-04-28T01:01:17.808Z,34.75
2019-04-28T01:03:49.404Z,34.49
2019-04-28T01:06:22.197Z,35.06
2019-04-28T01:08:54.996Z,35.42
2019-04-28T01:11:26.579Z,35.98
2019-04-28T01:13:59.097Z,35.52
2019-04-28T01:16:39.859Z,35.73
2019-04-28T01:19:12.648Z,36.38
2019-04-28T01:21:57.878Z,35.99
2019-04-28T01:24:29.753Z,36.21
2019-04-28T01:27:02.127Z,37.92
2019-04-28T01:29:34.970Z,38.92
2019-04-28T01:32:16.962Z,39.42
2019-04-28T01:34:49.839Z,41.95
2019-04-28T01:37:21.444Z,43.40
2019-04-28T01:39:53.135Z,42.79
2019-04-28T01:42:25.507Z,42.84
2019-04-28T01:44:57.109Z,42.21
2019-04-28T01:47:30.549Z,42.50
2019-04-28T01:50:02.222Z,42.83
2019-04-28T01:52:34.020Z,41.92
2019-04-28T01:55:06.755Z,42.03
2019-04-28T01:57:41.328Z,42.71
2019-04-28T02:00:24.575Z,42.11
2019-04-28T02:02:50.377Z,42.10
2019-04-28T02:05:22.416Z,41.89
2019-04-28T02:07:55.477Z,42.42
2019-04-28T02:10:26.936Z,43.28
2019-04-28T02:12:59.906Z,43.19
2019-04-28T02:15:31.801Z,43.75
2019-04-28T02:18:03.417Z,43.02
2019-04-28T02:20:35.094Z,43.39
2019-04-28T02:23:09.881Z,42.93
2019-04-28T02:25:41.573Z,43.37
2019-04-28T02:28:13.025Z,41.87
2019-04-28T02:30:49.400Z,41.36
2019-04-28T02:33:17.971Z,41.33
2019-04-28T02:35:51.123Z,41.70
2019-04-28T02:38:22.823Z,42.27
2019-04-28T02:40:54.254Z,41.35
2019-04-28T02:43:25.823Z,41.32
2019-04-28T02:45:57.789Z,40.34
2019-04-28T02:48:31.016Z,39.99
2019-04-28T02:51:04.071Z,40.73
2019-04-28T02:53:37.215Z,40.02
2019-04-28T02:56:11.045Z,39.94
2019-04-28T02:58:41.982Z,40.04
2019-04-28T03:01:25.041Z,39.57
2019-04-28T03:03:46.696Z,39.36
2019-04-28T03:06:20.538Z,39.42
2019-04-28T03:08:51.135Z,38.99
2019-04-28T03:11:22.505Z,38.81
2019-04-28T03:13:53.953Z,38.09
2019-04-28T03:16:26.535Z,38.58
2019-04-28T03:18:57.906Z,36.75
2019-04-28T03:21:31.293Z,37.53
2019-04-28T03:24:02.758Z,36.69
2019-04-28T03:26:44.893Z,36.32
2019-04-28T03:29:20.785Z,36.35
2019-04-28T03:32:16.583Z,35.83
2019-04-28T03:34:46.073Z,36.45
2019-04-28T03:37:17.702Z,35.08
2019-04-28T03:39:50.411Z,34.99
2019-04-28T03:42:22.221Z,34.48
2019-04-28T03:44:54.445Z,35.08
2019-04-28T03:47:25.792Z,34.47
2019-04-28T03:49:57.128Z,34.81
2019-04-28T03:52:28.435Z,34.12
2019-04-28T03:55:00.523Z,34.22
2019-04-28T03:57:32.414Z,34.11
2019-04-28T04:00:05.701Z,33.98
2019-04-28T04:02:41.189Z,34.21
2019-04-28T04:05:12.160Z,34.16
2019-04-28T04:07:44.055Z,34.29
2019-04-28T04:10:30.546Z,34.60
2019-04-28T04:13:06.110Z,34.39
2019-04-28T04:15:49.164Z,34.16
2019-04-28T04:18:21.043Z,34.54
2019-04-28T04:20:52.652Z,34.65
2019-04-28T04:23:24.035Z,34.91
2019-04-28T04:25:55.411Z,35.06
2019-04-28T04:28:26.695Z,34.88
2019-04-28T04:31:02.483Z,35.16
2019-04-28T04:33:31.334Z,35.70
2019-04-28T04:36:02.907Z,34.78
2019-04-28T04:38:34.700Z,34.86
2019-04-28T04:41:06.368Z,35.00
2019-04-28T04:43:37.637Z,35.42
2019-04-28T04:46:22.114Z,35.50
2019-04-28T04:48:54.844Z,35.98
2019-04-28T04:51:26.303Z,35.35
2019-04-28T04:54:00.694Z,35.54
2019-04-28T04:56:30.955Z,34.25
2019-04-28T04:59:02.935Z,34.23
2019-04-28T05:01:54.182Z,33.59
2019-04-28T05:04:29.817Z,34.04
2019-04-28T05:07:01.326Z,34.08
2019-04-28T05:09:32.745Z,34.53
2019-04-28T05:12:04.055Z,33.96
2019-04-28T05:14:36.409Z,33.46
2019-04-28T05:17:07.876Z,33.53
2019-04-28T05:19:40.188Z,32.91
2019-04-28T05:22:12.513Z,32.55
2019-04-28T05:24:46.232Z,32.67
2019-04-28T05:27:23.954Z,32.87
2019-04-28T05:29:51.895Z,32.20
2019-04-28T05:32:23.300Z,32.47
2019-04-28T05:34:54.744Z,32.09
2019-04-28T05:37:26.122Z,32.43
2019-04-28T05:39:57.508Z,33.20
2019-04-28T05:42:30.226Z,33.21
2019-04-28T05:45:01.758Z,32.74
2019-04-28T05:47:33.262Z,33.34
2019-04-28T05:50:12.685Z,34.13
2019-04-28T05:52:57.840Z,35.24
2019-04-28T05:55:31.893Z,34.40
2019-04-28T05:58:04.897Z,34.07
2019-04-28T06:00:56.384Z,34.29
2019-04-28T06:03:30.233Z,34.22
2019-04-28T06:06:01.849Z,34.25
2019-04-28T06:08:37.946Z,34.35
2019-04-28T06:11:27.498Z,34.03
2019-04-28T06:13:59.968Z,34.61
2019-04-28T06:16:31.487Z,34.58
2019-04-28T06:19:03.381Z,35.02
2019-04-28T06:21:34.935Z,36.51
2019-04-28T06:24:06.527Z,35.93
2019-04-28T06:26:38.046Z,36.86
2019-04-28T06:29:09.569Z,35.83
2019-04-28T06:31:41.087Z,35.85
2019-04-28T06:34:14.084Z,36.29
2019-04-28T06:36:45.732Z,35.90
2019-04-28T06:39:17.627Z,36.39
2019-04-28T06:41:49.122Z,36.99
2019-04-28T06:44:22.479Z,37.33
2019-04-28T06:46:54.132Z,38.19
2019-04-28T06:49:25.515Z,38.54
2019-04-28T06:51:56.798Z,39.31
2019-04-28T06:54:28.304Z,43.00
2019-04-28T06:57:00.008Z,42.45
2019-04-28T06:59:31.587Z,41.14
2019-04-28T07:02:03.136Z,42.75
2019-04-28T07:04:34.746Z,43.67
2019-04-28T07:07:06.370Z,44.33
2019-04-28T07:09:37.903Z,44.76
2019-04-28T07:12:09.540Z,45.12
2019-04-28T07:14:41.016Z,44.93
2019-04-28T07:17:12.899Z,44.68
2019-04-28T07:19:46.048Z,43.42
2019-04-28T07:22:24.785Z,43.86
2019-04-28T07:24:56.444Z,44.05
2019-04-28T07:27:28.209Z,43.97
2019-04-28T07:29:59.966Z,43.84
2019-04-28T07:32:31.466Z,43.64
2019-04-28T07:35:02.962Z,41.78
2019-04-28T07:37:34.547Z,42.41
2019-04-28T07:40:07.033Z,42.69
2019-04-28T07:42:38.542Z,42.99
2019-04-28T07:45:10.603Z,42.70
2019-04-28T07:47:42.072Z,41.91
2019-04-28T07:50:14.432Z,42.63
2019-04-28T07:52:50.600Z,43.54
2019-04-28T07:55:22.057Z,43.43
2019-04-28T07:57:53.585Z,41.03
2019-04-28T08:00:29.557Z,40.93
2019-04-28T08:03:00.924Z,41.93
2019-04-28T08:05:32.559Z,39.84
2019-04-28T08:08:04.085Z,39.11
2019-04-28T08:10:35.671Z,40.22
2019-04-28T08:13:07.191Z,39.12
2019-04-28T08:15:38.900Z,39.34
2019-04-28T08:18:10.444Z,37.21
2019-04-28T08:20:42.085Z,36.19
2019-04-28T08:23:13.740Z,33.24
2019-04-28T08:25:45.325Z,33.10
2019-04-28T08:28:16.843Z,32.58
2019-04-28T08:30:48.296Z,31.41
2019-04-28T08:33:37.019Z,31.07
2019-04-28T08:36:08.609Z,32.01
2019-04-28T08:38:40.048Z,31.10
2019-04-28T08:41:11.390Z,29.92
2019-04-28T08:43:42.776Z,30.04
2019-04-28T08:46:14.306Z,29.43
2019-04-28T08:48:45.789Z,28.93
2019-04-28T08:51:17.309Z,29.36
2019-04-28T08:53:48.818Z,29.49
2019-04-28T08:56:20.280Z,28.75
2019-04-28T08:58:51.843Z,29.08
2019-04-28T09:01:23.471Z,28.58
2019-04-28T09:03:55.045Z,28.75
2019-04-28T09:06:27.453Z,28.44
2019-04-28T09:08:59.029Z,27.49
2019-04-28T09:11:30.642Z,27.20
2019-04-28T09:14:02.280Z,27.82
2019-04-28T09:16:33.827Z,27.62
2019-04-28T09:19:05.429Z,27.48
2019-04-28T09:21:36.964Z,28.03
2019-04-28T09:24:08.349Z,28.58
2019-04-28T09:26:40.393Z,28.43
2019-04-28T09:29:11.890Z,27.98
2019-04-28T09:31:43.358Z,28.17
2019-04-28T09:34:27.580Z,28.38
2019-04-28T09:36:48.013Z,28.20
2019-04-28T09:39:23.493Z,28.41
2019-04-28T09:42:13.189Z,27.84
2019-04-28T09:44:44.707Z,26.62
2019-04-28T09:47:16.266Z,26.19
2019-04-28T09:49:47.518Z,26.43
2019-04-28T09:52:18.815Z,26.19
2019-04-28T09:54:50.270Z,26.25
2019-04-28T09:57:24.266Z,26.60
2019-04-28T09:59:55.793Z,26.82
2019-04-28T10:02:27.206Z,27.48
2019-04-28T10:04:58.637Z,26.79
2019-04-28T10:07:31.252Z,26.91
2019-04-28T10:10:02.974Z,26.84
2019-04-28T10:12:34.662Z,26.47
2019-04-28T10:15:10.377Z,26.67
2019-04-28T10:17:41.858Z,26.63
2019-04-28T10:20:13.935Z,26.67
2019-04-28T10:22:45.343Z,26.62
2019-04-28T10:25:17.124Z,26.62
2019-04-28T10:27:48.459Z,27.97
2019-04-28T10:30:19.857Z,28.94
2019-04-28T10:32:51.350Z,28.08
2019-04-28T10:35:22.846Z,26.76
2019-04-28T10:37:54.284Z,27.40
2019-04-28T10:40:56.985Z,26.94
2019-04-28T10:43:28.498Z,26.83
2019-04-28T10:45:59.851Z,27.12
2019-04-28T10:48:31.194Z,27.21
2019-04-28T10:51:02.560Z,27.22
2019-04-28T10:53:33.929Z,27.35
2019-04-28T10:56:06.362Z,27.26
2019-04-28T10:58:37.896Z,27.09
2019-04-28T11:01:09.329Z,27.16
2019-04-28T11:03:42.446Z,26.98
2019-04-28T11:06:14.109Z,28.09
2019-04-28T11:08:59.602Z,26.54
2019-04-28T11:11:31.223Z,26.98
2019-04-28T11:14:02.654Z,28.32
2019-04-28T11:16:35.228Z,26.78
2019-04-28T11:19:06.712Z,26.36
2019-04-28T11:21:38.301Z,26.29
2019-04-28T11:24:09.903Z,25.92
2019-04-28T11:26:41.260Z,25.47
2019-04-28T11:29:13.839Z,25.42
2019-04-28T11:31:45.341Z,25.53
2019-04-28T11:34:18.338Z,25.89
2019-04-28T11:36:49.769Z,28.39
2019-04-28T11:39:22.866Z,30.36
2019-04-28T11:41:55.674Z,32.72
2019-04-28T11:44:27.247Z,32.30
2019-04-28T11:46:58.708Z,28.98
2019-04-28T11:49:30.125Z,28.76
2019-04-28T11:52:01.466Z,26.59
2019-04-28T11:54:32.819Z,26.03
2019-04-28T11:57:05.716Z,25.88
2019-04-28T11:59:37.298Z,25.95
2019-04-28T12:02:08.726Z,25.58
2019-04-28T12:04:40.395Z,25.32
2019-04-28T12:07:11.697Z,25.23
2019-04-28T12:09:47.652Z,25.09
2019-04-28T12:12:36.234Z,25.32
2019-04-28T12:15:21.709Z,25.50
2019-04-28T12:18:10.754Z,27.45
2019-04-28T12:20:42.150Z,31.13
2019-04-28T12:23:13.879Z,31.16
2019-04-28T12:25:45.233Z,32.64
2019-04-28T12:28:16.666Z,32.62
2019-04-28T12:30:48.056Z,31.73
2019-04-28T12:33:19.528Z,31.23
2019-04-28T12:35:50.978Z,32.97
2019-04-28T12:38:22.446Z,34.04
2019-04-28T12:40:53.891Z,34.74
2019-04-28T12:43:25.309Z,36.95
2019-04-28T12:45:56.700Z,36.82
2019-04-28T12:48:28.160Z,36.50
2019-04-28T12:50:59.534Z,36.45
2019-04-28T12:53:31.320Z,37.04
2019-04-28T12:56:02.755Z,38.51
2019-04-28T12:58:34.219Z,39.22
2019-04-28T13:01:15.891Z,39.31
2019-04-28T13:03:57.859Z,39.23
2019-04-28T13:06:30.987Z,39.18
2019-04-28T13:09:02.470Z,39.73
2019-04-28T13:11:35.115Z,39.92
2019-04-28T13:14:06.545Z,40.54
2019-04-28T13:16:38.149Z,40.45
2019-04-28T13:19:09.599Z,41.26
2019-04-28T13:21:40.975Z,40.36
2019-04-28T13:24:12.272Z,40.36
2019-04-28T13:26:43.804Z,40.62
2019-04-28T13:29:15.210Z,40.58
2019-04-28T13:31:46.708Z,40.39
2019-04-28T13:34:19.739Z,40.53
2019-04-28T13:36:51.063Z,40.61
2019-04-28T13:39:24.268Z,41.30
2019-04-28T13:41:55.758Z,41.07
2019-04-28T13:44:45.044Z,41.07
2019-04-28T13:47:16.467Z,41.10
2019-04-28T13:49:49.577Z,41.10
2019-04-28T13:52:21.055Z,41.08
2019-04-28T13:54:57.125Z,40.83
2019-04-28T13:57:28.679Z,40.72
2019-04-28T14:00:04.477Z,40.60
2019-04-28T14:02:37.717Z,40.59
2019-04-28T14:05:28.015Z,40.84
2019-04-28T14:08:01.158Z,40.81
2019-04-28T14:10:32.596Z,41.18
2019-04-28T14:13:04.198Z,41.05
2019-04-28T14:15:35.698Z,41.62
2019-04-28T14:18:07.218Z,41.88
2019-04-28T14:20:38.723Z,41.80
2019-04-28T14:23:10.150Z,41.71
2019-04-28T14:25:41.619Z,41.60
2019-04-28T14:28:12.950Z,41.28
2019-04-28T14:30:44.343Z,41.41
2019-04-28T14:33:16.658Z,41.30
2019-04-28T14:35:48.382Z,41.31
2019-04-28T14:38:19.725Z,40.92
2019-04-28T14:40:51.326Z,40.62
2019-04-28T14:43:22.796Z,39.88
2019-04-28T14:45:54.220Z,39.41
2019-04-28T14:48:25.791Z,39.71
2019-04-28T14:50:57.391Z,38.48
2019-04-28T14:53:29.080Z,38.03
2019-04-28T14:56:00.630Z,37.86
2019-04-28T14:58:32.184Z,36.53
2019-04-28T15:01:11.212Z,35.95
2019-04-28T15:03:53.184Z,36.13
2019-04-28T15:06:29.464Z,34.51
2019-04-28T15:09:05.249Z,33.85
2019-04-28T15:11:42.818Z,33.76
2019-04-28T15:14:14.333Z,33.30
2019-04-28T15:16:45.785Z,32.42
2019-04-28T15:19:17.207Z,33.07
2019-04-28T15:21:48.599Z,34.26
2019-04-28T15:24:20.103Z,34.45
2019-04-28T15:26:51.556Z,34.25
2019-04-28T15:29:22.966Z,34.68
2019-04-28T15:31:54.332Z,34.20
2019-04-28T15:34:25.691Z,34.57
2019-04-28T15:37:09.176Z,34.61
2019-04-28T15:39:30.371Z,34.73
2019-04-28T15:42:01.732Z,35.41
2019-04-28T15:44:34.696Z,36.13
2019-04-28T15:47:06.058Z,37.00
2019-04-28T15:49:38.689Z,37.06
2019-04-28T15:52:10.043Z,37.06
2019-04-28T15:54:42.854Z,37.40
2019-04-28T15:57:14.306Z,37.75
2019-04-28T15:59:45.785Z,37.69
2019-04-28T16:02:17.204Z,37.94
2019-04-28T16:04:48.651Z,38.58
2019-04-28T16:07:25.191Z,37.65
2019-04-28T16:09:57.752Z,37.10
2019-04-28T16:12:29.342Z,36.77
2019-04-28T16:15:00.802Z,36.53
2019-04-28T16:17:32.391Z,36.62
2019-04-28T16:20:07.337Z,36.73
2019-04-28T16:22:38.781Z,36.72
2019-04-28T16:25:10.170Z,36.88
2019-04-28T16:27:41.471Z,37.03
2019-04-28T16:30:13.080Z,37.16
2019-04-28T16:32:44.547Z,37.53
2019-04-28T16:35:16.127Z,37.72
2019-04-28T16:37:47.477Z,37.75
2019-04-28T16:40:19.033Z,37.91
2019-04-28T16:42:51.279Z,38.17
2019-04-28T16:45:22.677Z,37.79
2019-04-28T16:47:54.049Z,37.88
2019-04-28T16:50:25.575Z,37.70
2019-04-28T16:52:56.948Z,37.49
2019-04-28T16:55:45.289Z,38.01
2019-04-28T16:58:18.333Z,38.33
2019-04-28T17:00:57.453Z,38.48
2019-04-28T17:03:30.626Z,39.01
2019-04-28T17:06:03.388Z,40.02
2019-04-28T17:08:34.916Z,40.33
2019-04-28T17:11:06.369Z,40.46
2019-04-28T17:13:38.090Z,40.44
2019-04-28T17:16:10.044Z,40.43
2019-04-28T17:18:42.148Z,40.35
2019-04-28T17:21:13.507Z,40.32
2019-04-28T17:23:44.976Z,40.23
2019-04-28T17:26:16.406Z,40.26
2019-04-28T17:28:47.801Z,40.34
2019-04-28T17:31:19.170Z,40.38
2019-04-28T17:33:51.068Z,40.36
2019-04-28T17:36:24.240Z,40.28
2019-04-28T17:38:55.860Z,40.03
2019-04-28T17:41:28.529Z,40.10
2019-04-28T17:43:59.864Z,39.81
2019-04-28T17:46:31.379Z,39.29
2019-04-28T17:49:02.914Z,38.34
2019-04-28T17:51:34.384Z,38.07
2019-04-28T17:54:06.013Z,37.79
2019-04-28T17:56:37.469Z,37.74
2019-04-28T17:59:09.814Z,37.66
2019-04-28T18:01:48.702Z,37.73
2019-04-28T18:04:36.998Z,37.62
2019-04-28T18:07:13.174Z,37.72
2019-04-28T18:09:44.496Z,37.86
2019-04-28T18:12:15.992Z,37.95
2019-04-28T18:14:49.012Z,38.10
2019-04-28T18:17:31.317Z,38.23
2019-04-28T18:20:02.932Z,38.54
2019-04-28T18:22:35.849Z,38.40
2019-04-28T18:25:07.788Z,38.49
2019-04-28T18:27:39.091Z,38.28
2019-04-28T18:30:12.459Z,38.12
2019-04-28T18:32:54.877Z,38.25
2019-04-28T18:35:33.772Z,38.14
2019-04-28T18:38:16.180Z,37.83
2019-04-28T18:41:05.504Z,37.71
2019-04-28T18:43:47.944Z,37.69
2019-04-28T18:46:24.150Z,37.86
2019-04-28T18:48:55.669Z,37.90
2019-04-28T18:51:27.178Z,37.92
2019-04-28T18:53:58.516Z,37.81
2019-04-28T18:56:31.866Z,38.01
2019-04-28T18:59:03.333Z,38.40
2019-04-28T19:01:42.437Z,38.45
2019-04-28T19:04:13.814Z,38.71
2019-04-28T19:06:45.441Z,39.08
2019-04-28T19:09:24.336Z,39.35
2019-04-28T19:12:06.330Z,39.28
2019-04-28T19:14:39.280Z,39.30
2019-04-28T19:17:14.949Z,39.27
2019-04-28T19:19:46.392Z,39.49
2019-04-28T19:22:17.830Z,39.46
2019-04-28T19:24:49.352Z,38.65
2019-04-28T19:27:21.035Z,39.26
2019-04-28T19:29:52.529Z,38.42
2019-04-28T19:32:24.042Z,38.21
2019-04-28T19:34:55.635Z,38.36
2019-04-28T19:37:27.218Z,37.69
2019-04-28T19:39:59.852Z,37.98
2019-04-28T19:42:31.495Z,37.70
2019-04-28T19:45:03.050Z,37.57
2019-04-28T19:47:34.916Z,37.62
2019-04-28T19:50:07.728Z,37.72
2019-04-28T19:52:42.526Z,37.85
2019-04-28T19:55:23.846Z,37.76
2019-04-28T19:58:15.061Z,37.79
2019-04-28T20:00:48.161Z,37.62
2019-04-28T20:03:19.714Z,37.62
2019-04-28T20:05:51.387Z,37.62
2019-04-28T20:08:23.928Z,37.59
2019-04-28T20:10:56.388Z,37.71
2019-04-28T20:13:27.701Z,37.79
2019-04-28T20:15:59.386Z,37.93
2019-04-28T20:18:32.563Z,38.04
2019-04-28T20:21:04.193Z,38.33
2019-04-28T20:23:36.630Z,38.57
2019-04-28T20:26:08.062Z,38.67
2019-04-28T20:28:39.527Z,38.93
2019-04-28T20:31:10.974Z,39.23
2019-04-28T20:33:43.899Z,39.01
2019-04-28T20:36:26.263Z,39.12
2019-04-28T20:39:02.012Z,38.92
2019-04-28T20:41:35.049Z,39.09
2019-04-28T20:44:06.690Z,39.11
2019-04-28T20:46:38.001Z,39.08
2019-04-28T20:49:09.489Z,39.06
2019-04-28T20:51:42.562Z,38.85
2019-04-28T20:54:14.070Z,38.54
2019-04-28T20:56:47.126Z,38.26
2019-04-28T20:59:18.737Z,38.46
2019-04-28T21:01:50.214Z,38.54
2019-04-28T21:04:21.849Z,38.44
2019-04-28T21:06:53.431Z,38.55
2019-04-28T21:09:25.014Z,38.47
2019-04-28T21:11:56.398Z,38.46
2019-04-28T21:14:27.836Z,38.49
2019-04-28T21:16:59.230Z,38.46
2019-04-28T21:19:30.847Z,38.64
2019-04-28T21:22:02.528Z,38.56
2019-04-28T21:24:50.213Z,38.35
2019-04-28T21:27:21.752Z,38.54
2019-04-28T21:29:53.493Z,38.38
2019-04-28T21:32:24.930Z,38.37
2019-04-28T21:34:57.208Z,38.31
2019-04-28T21:37:28.652Z,38.20
2019-04-28T21:40:00.100Z,38.31
2019-04-28T21:42:45.232Z,38.33
2019-04-28T21:45:34.667Z,38.29
2019-04-28T21:48:06.062Z,38.34
2019-04-28T21:50:37.464Z,38.37
2019-04-28T21:53:09.023Z,38.21
2019-04-28T21:55:40.526Z,38.31
2019-04-28T21:58:11.870Z,38.49
2019-04-28T22:00:52.104Z,38.48
2019-04-28T22:03:26.720Z,38.54
2019-04-28T22:05:58.430Z,38.61
2019-04-28T22:08:29.896Z,38.77
2019-04-28T22:11:01.498Z,38.67
2019-04-28T22:13:33.157Z,38.58
2019-04-28T22:16:04.608Z,38.56
2019-04-28T22:18:36.034Z,38.48
2019-04-28T22:21:08.931Z,38.54
2019-04-28T22:23:59.027Z,38.65
2019-04-28T22:26:44.210Z,38.51
2019-04-28T22:29:16.666Z,38.40
2019-04-28T22:31:48.257Z,38.39
2019-04-28T22:34:19.670Z,38.36
2019-04-28T22:36:51.619Z,38.41
2019-04-28T22:39:23.053Z,38.37
2019-04-28T22:41:54.420Z,38.40
2019-04-28T22:44:30.504Z,38.45
2019-04-28T22:47:01.883Z,38.39
2019-04-28T22:49:33.384Z,38.28
2019-04-28T22:52:04.730Z,38.24
2019-04-28T22:54:50.724Z,38.03
2019-04-28T22:57:35.605Z,37.98
2019-04-28T23:00:11.724Z,37.95
2019-04-28T23:02:44.900Z,37.97
2019-04-28T23:05:16.322Z,37.92
2019-04-28T23:07:47.855Z,37.91
2019-04-28T23:10:19.204Z,37.97
2019-04-28T23:12:50.592Z,37.74
2019-04-28T23:15:22.116Z,37.74
2019-04-28T23:17:53.734Z,37.93
2019-04-28T23:20:26.880Z,37.98
2019-04-28T23:22:59.941Z,37.86
2019-04-28T23:25:31.243Z,37.92
2019-04-28T23:28:02.731Z,37.58
2019-04-28T23:30:39.875Z,37.57
2019-04-28T23:33:11.364Z,38.03
2019-04-28T23:35:42.823Z,37.97
2019-04-28T23:38:14.275Z,37.65
2019-04-28T23:40:56.888Z,37.69
2019-04-28T23:43:28.255Z,37.66
2019-04-28T23:45:59.548Z,37.85
2019-04-28T23:48:31.072Z,38.47
2019-04-28T23:51:09.818Z,38.82
2019-04-28T23:53:58.041Z,38.82
2019-04-28T23:56:29.408Z,39.11
2019-04-28T23:59:00.841Z,39.17
